sensor_id;sensor_type;location;lat;lon;timestamp;temperature;humidity
22984;DHT22;11658;48.908;9.140;2024-01-11T05:00:49;-6.20;99.90
22984;DHT22;11658;48.908;9.140;2024-01-11T05:03:14;-6.30;99.90
22984;DHT22;11658;48.908;9.140;2024-01-11T05:05:40;-6.30;99.90
22984;DHT22;11658;48.908;9.140;2024-01-11T05:08:07;-6.30;99.90
22984;DHT22;11658;48.908;9.140;2024-01-11T05:10:32;-6.30;99.90
22984;DHT22;11658;48.908;9.140;2024-01-11T05:12:58;-6.30;99.90
22984;DHT22;11658;48.908;9.140;2024-01-11T05:15:23;-6.20;99.90
22984;DHT22;11658;48.908;9.140;2024-01-11T05:17:49;-6.30;99.90
22984;DHT22;11658;48.908;9.140;2024-01-11T05:20:14;-6.30;99.90
22984;DHT22;11658;48.908;9.140;2024-01-11T05:22:40;-6.40;99.90
22984;DHT22;11658;48.908;9.140;2024-01-11T05:25:06;-6.40;99.90
22984;DHT22;11658;48.908;9.140;2024-01-11T05:27:31;-6.40;99.90
22984;DHT22;11658;48.908;9.140;2024-01-11T05:29:57;-6.40;99.90
22984;DHT22;11658;48.908;9.140;2024-01-11T05:32:22;-6.40;99.90
22984;DHT22;11658;48.908;9.140;2024-01-11T05:34:48;-6.40;99.90
22984;DHT22;11658;48.908;9.140;2024-01-11T05:37:14;-6.40;99.90
22984;DHT22;11658;48.908;9.140;2024-01-11T05:39:39;-6.40;99.90
22984;DHT22;11658;48.908;9.140;2024-01-11T05:42:05;-6.40;99.90
22984;DHT22;11658;48.908;9.140;2024-01-11T05:44:31;-6.30;99.90
22984;DHT22;11658;48.908;9.140;2024-01-11T05:46:57;-6.30;99.90
22984;DHT22;11658;48.908;9.140;2024-01-11T05:49:23;-6.40;99.90
22984;DHT22;11658;48.908;9.140;2024-01-11T05:51:48;-6.40;99.90
22984;DHT22;11658;48.908;9.140;2024-01-11T05:54:14;-6.40;99.90
22984;DHT22;11658;48.908;9.140;2024-01-11T05:56:40;-6.40;99.90
22984;DHT22;11658;48.908;9.140;2024-01-11T05:59:05;-6.40;99.90
22984;DHT22;11658;48.908;9.140;2024-01-11T06:01:31;-6.40;99.90
22984;DHT22;11658;48.908;9.140;2024-01-11T06:03:57;-6.40;99.90
22984;DHT22;11658;48.908;9.140;2024-01-11T06:06:22;-6.40;99.90
22984;DHT22;11658;48.908;9.140;2024-01-11T06:08:48;-6.40;99.90
22984;DHT22;11658;48.908;9.140;2024-01-11T06:11:14;-6.50;99.90
22984;DHT22;11658;48.908;9.140;2024-01-11T06:13:40;-6.50;99.90
22984;DHT22;11658;48.908;9.140;2024-01-11T06:16:06;-6.50;99.90
22984;DHT22;11658;48.908;9.140;2024-01-11T06:18:33;-6.50;99.90
22984;DHT22;11658;48.908;9.140;2024-01-11T06:20:58;-6.50;99.90
22984;DHT22;11658;48.908;9.140;2024-01-11T06:23:25;-6.50;99.90
22984;DHT22;11658;48.908;9.140;2024-01-11T06:25:50;-6.40;99.90
22984;DHT22;11658;48.908;9.140;2024-01-11T06:28:16;-6.40;99.90
22984;DHT22;11658;48.908;9.140;2024-01-11T06:30:42;-6.40;99.90
22984;DHT22;11658;48.908;9.140;2024-01-11T06:33:08;-6.40;99.90
22984;DHT22;11658;48.908;9.140;2024-01-11T06:35:34;-6.40;99.90
22984;DHT22;11658;48.908;9.140;2024-01-11T06:38:00;-6.40;99.90
22984;DHT22;11658;48.908;9.140;2024-01-11T06:40:26;-6.40;99.90
22984;DHT22;11658;48.908;9.140;2024-01-11T06:42:51;-6.50;99.90
22984;DHT22;11658;48.908;9.140;2024-01-11T06:45:17;-6.50;99.90
22984;DHT22;11658;48.908;9.140;2024-01-11T06:47:42;-6.50;99.90
22984;DHT22;11658;48.908;9.140;2024-01-11T06:50:12;-6.50;99.90
22984;DHT22;11658;48.908;9.140;2024-01-11T06:52:38;-6.60;99.90
22984;DHT22;11658;48.908;9.140;2024-01-11T06:55:04;-6.60;99.90
22984;DHT22;11658;48.908;9.140;2024-01-11T06:57:30;-6.60;99.90
22984;DHT22;11658;48.908;9.140;2024-01-11T06:59:55;-6.50;99.90
22984;DHT22;11658;48.908;9.140;2024-01-11T07:02:21;-6.50;99.90
22984;DHT22;11658;48.908;9.140;2024-01-11T07:04:47;-6.40;99.90
22984;DHT22;11658;48.908;9.140;2024-01-11T07:07:13;-6.40;99.90
22984;DHT22;11658;48.908;9.140;2024-01-11T07:09:38;-6.40;99.90
22984;DHT22;11658;48.908;9.140;2024-01-11T07:12:05;-6.40;99.90
22984;DHT22;11658;48.908;9.140;2024-01-11T07:14:31;-6.40;99.90
22984;DHT22;11658;48.908;9.140;2024-01-11T07:16:57;-6.40;99.90
22984;DHT22;11658;48.908;9.140;2024-01-11T07:19:22;-6.40;99.90
22984;DHT22;11658;48.908;9.140;2024-01-11T07:21:48;-6.40;99.90
22984;DHT22;11658;48.908;9.140;2024-01-11T07:24:14;-6.40;99.90
22984;DHT22;11658;48.908;9.140;2024-01-11T07:26:39;-6.40;99.90
22984;DHT22;11658;48.908;9.140;2024-01-11T07:29:05;-6.40;99.90
22984;DHT22;11658;48.908;9.140;2024-01-11T07:31:31;-6.40;99.90
22984;DHT22;11658;48.908;9.140;2024-01-11T07:33:56;-6.30;99.90
22984;DHT22;11658;48.908;9.140;2024-01-11T07:36:22;-6.30;99.90
22984;DHT22;11658;48.908;9.140;2024-01-11T07:38:48;-6.30;99.90
22984;DHT22;11658;48.908;9.140;2024-01-11T07:41:13;-6.30;99.90
22984;DHT22;11658;48.908;9.140;2024-01-11T07:43:40;-6.30;99.90
22984;DHT22;11658;48.908;9.140;2024-01-11T07:46:05;-6.30;99.90
22984;DHT22;11658;48.908;9.140;2024-01-11T07:48:32;-6.30;99.90
22984;DHT22;11658;48.908;9.140;2024-01-11T07:50:59;-6.20;99.90
22984;DHT22;11658;48.908;9.140;2024-01-11T07:53:25;-6.10;99.90
22984;DHT22;11658;48.908;9.140;2024-01-11T07:55:51;-6.00;99.90
22984;DHT22;11658;48.908;9.140;2024-01-11T07:58:18;-6.00;99.90
22984;DHT22;11658;48.908;9.140;2024-01-11T08:00:44;-5.90;99.90
22984;DHT22;11658;48.908;9.140;2024-01-11T08:03:10;-5.90;99.90
22984;DHT22;11658;48.908;9.140;2024-01-11T08:05:36;-5.80;99.90
22984;DHT22;11658;48.908;9.140;2024-01-11T08:08:01;-5.70;99.90
22984;DHT22;11658;48.908;9.140;2024-01-11T08:10:29;-5.60;99.90
22984;DHT22;11658;48.908;9.140;2024-01-11T08:12:56;-5.60;99.90
22984;DHT22;11658;48.908;9.140;2024-01-11T08:15:22;-5.50;99.90
22984;DHT22;11658;48.908;9.140;2024-01-11T08:17:48;-5.50;99.90
22984;DHT22;11658;48.908;9.140;2024-01-11T08:20:14;-5.40;99.90
22984;DHT22;11658;48.908;9.140;2024-01-11T08:22:42;-5.30;99.90
22984;DHT22;11658;48.908;9.140;2024-01-11T08:25:12;-5.10;99.90
22984;DHT22;11658;48.908;9.140;2024-01-11T08:27:39;-5.20;99.90
22984;DHT22;11658;48.908;9.140;2024-01-11T08:30:06;-5.00;99.90
22984;DHT22;11658;48.908;9.140;2024-01-11T08:32:31;-4.90;99.90
22984;DHT22;11658;48.908;9.140;2024-01-11T08:35:05;-4.70;99.90
22984;DHT22;11658;48.908;9.140;2024-01-11T08:37:32;-4.60;99.90
22984;DHT22;11658;48.908;9.140;2024-01-11T08:39:57;-4.50;99.90
22984;DHT22;11658;48.908;9.140;2024-01-11T08:42:23;-4.60;99.90
22984;DHT22;11658;48.908;9.140;2024-01-11T08:44:49;-4.60;99.90
22984;DHT22;11658;48.908;9.140;2024-01-11T08:47:14;-4.50;99.90
22984;DHT22;11658;48.908;9.140;2024-01-11T08:49:40;-4.40;99.90
22984;DHT22;11658;48.908;9.140;2024-01-11T08:52:07;-4.30;99.90
22984;DHT22;11658;48.908;9.140;2024-01-11T08:54:33;-4.20;99.90
22984;DHT22;11658;48.908;9.140;2024-01-11T08:56:59;-4.10;99.90
22984;DHT22;11658;48.908;9.140;2024-01-11T08:59:24;-4.10;99.90
22984;DHT22;11658;48.908;9.140;2024-01-11T09:01:51;-4.00;99.90
22984;DHT22;11658;48.908;9.140;2024-01-11T09:04:17;-3.90;99.90
22984;DHT22;11658;48.908;9.140;2024-01-11T09:06:43;-3.80;99.90
22984;DHT22;11658;48.908;9.140;2024-01-11T09:09:10;-3.80;99.90
22984;DHT22;11658;48.908;9.140;2024-01-11T09:11:36;-3.90;99.90
22984;DHT22;11658;48.908;9.140;2024-01-11T09:14:02;-4.10;99.90
22984;DHT22;11658;48.908;9.140;2024-01-11T09:16:30;-4.20;99.90
22984;DHT22;11658;48.908;9.140;2024-01-11T09:18:56;-4.20;99.90
22984;DHT22;11658;48.908;9.140;2024-01-11T09:21:22;-4.20;99.90
22984;DHT22;11658;48.908;9.140;2024-01-11T09:23:47;-4.30;99.90
22984;DHT22;11658;48.908;9.140;2024-01-11T09:26:13;-4.30;99.90
22984;DHT22;11658;48.908;9.140;2024-01-11T09:28:39;-4.20;99.90
22984;DHT22;11658;48.908;9.140;2024-01-11T09:31:04;-4.20;99.90
22984;DHT22;11658;48.908;9.140;2024-01-11T09:33:30;-3.20;99.90
22984;DHT22;11658;48.908;9.140;2024-01-11T09:35:55;-4.10;99.90
22984;DHT22;11658;48.908;9.140;2024-01-11T09:38:22;-4.10;99.90
22984;DHT22;11658;48.908;9.140;2024-01-11T09:41:14;-4.00;99.90
22984;DHT22;11658;48.908;9.140;2024-01-11T09:43:41;-3.90;99.90
22984;DHT22;11658;48.908;9.140;2024-01-11T09:46:07;-3.60;99.90
22984;DHT22;11658;48.908;9.140;2024-01-11T09:48:35;-3.50;99.90
22984;DHT22;11658;48.908;9.140;2024-01-11T09:51:08;-3.40;99.90
22984;DHT22;11658;48.908;9.140;2024-01-11T09:53:36;-3.40;99.90
22984;DHT22;11658;48.908;9.140;2024-01-11T09:56:09;-3.30;99.90
22984;DHT22;11658;48.908;9.140;2024-01-11T09:58:35;-3.20;99.90
22984;DHT22;11658;48.908;9.140;2024-01-11T10:01:07;-3.00;99.90
22984;DHT22;11658;48.908;9.140;2024-01-11T10:03:34;-2.90;99.90
22984;DHT22;11658;48.908;9.140;2024-01-11T10:06:00;-2.80;99.90
22984;DHT22;11658;48.908;9.140;2024-01-11T10:08:27;-2.80;99.90
22984;DHT22;11658;48.908;9.140;2024-01-11T10:10:54;-2.60;99.90
22984;DHT22;11658;48.908;9.140;2024-01-11T10:13:29;-2.50;99.90
22984;DHT22;11658;48.908;9.140;2024-01-11T10:16:21;-2.40;99.90
22984;DHT22;11658;48.908;9.140;2024-01-11T10:18:46;-2.20;99.90
22984;DHT22;11658;48.908;9.140;2024-01-11T10:21:12;-2.30;99.90
22984;DHT22;11658;48.908;9.140;2024-01-11T10:23:39;-2.40;99.90
22984;DHT22;11658;48.908;9.140;2024-01-11T10:26:05;-2.30;99.90
22984;DHT22;11658;48.908;9.140;2024-01-11T10:28:33;-2.10;99.90
22984;DHT22;11658;48.908;9.140;2024-01-11T10:31:03;-1.90;99.90
22984;DHT22;11658;48.908;9.140;2024-01-11T10:33:33;-1.90;99.90
22984;DHT22;11658;48.908;9.140;2024-01-11T10:36:00;-1.80;99.90
22984;DHT22;11658;48.908;9.140;2024-01-11T10:38:26;-1.10;99.90
22984;DHT22;11658;48.908;9.140;2024-01-11T10:40:55;-1.60;99.90
22984;DHT22;11658;48.908;9.140;2024-01-11T10:43:26;-1.50;99.90
22984;DHT22;11658;48.908;9.140;2024-01-11T10:45:52;-1.40;99.90
22984;DHT22;11658;48.908;9.140;2024-01-11T10:48:22;-1.30;99.90
22984;DHT22;11658;48.908;9.140;2024-01-11T10:50:54;-1.60;99.90
22984;DHT22;11658;48.908;9.140;2024-01-11T10:53:45;-1.80;99.90
22984;DHT22;11658;48.908;9.140;2024-01-11T10:56:12;-2.00;99.90
22984;DHT22;11658;48.908;9.140;2024-01-11T10:58:40;-2.00;99.90
22984;DHT22;11658;48.908;9.140;2024-01-11T11:01:08;-1.80;99.90
22984;DHT22;11658;48.908;9.140;2024-01-11T11:03:35;-1.70;99.90
22984;DHT22;11658;48.908;9.140;2024-01-11T11:06:02;-1.60;99.90
22984;DHT22;11658;48.908;9.140;2024-01-11T11:08:28;-1.50;99.90
22984;DHT22;11658;48.908;9.140;2024-01-11T11:10:55;-1.60;99.90
22984;DHT22;11658;48.908;9.140;2024-01-11T11:13:22;-1.40;99.90
22984;DHT22;11658;48.908;9.140;2024-01-11T11:15:48;-1.20;99.90
22984;DHT22;11658;48.908;9.140;2024-01-11T11:18:17;-1.20;99.90
22984;DHT22;11658;48.908;9.140;2024-01-11T11:20:44;-1.40;99.90
22984;DHT22;11658;48.908;9.140;2024-01-11T11:23:12;-1.20;99.90
22984;DHT22;11658;48.908;9.140;2024-01-11T11:25:41;-1.30;99.90
22984;DHT22;11658;48.908;9.140;2024-01-11T11:28:07;-1.30;99.90
22984;DHT22;11658;48.908;9.140;2024-01-11T11:30:37;-1.20;99.90
22984;DHT22;11658;48.908;9.140;2024-01-11T11:33:28;-1.30;99.90
22984;DHT22;11658;48.908;9.140;2024-01-11T11:35:57;-1.30;99.90
22984;DHT22;11658;48.908;9.140;2024-01-11T11:38:25;-1.20;99.90
22984;DHT22;11658;48.908;9.140;2024-01-11T11:40:52;-1.10;99.90
22984;DHT22;11658;48.908;9.140;2024-01-11T11:43:18;-1.00;99.90
22984;DHT22;11658;48.908;9.140;2024-01-11T11:45:50;-0.80;99.90
22984;DHT22;11658;48.908;9.140;2024-01-11T11:53:34;-0.90;99.90
22984;DHT22;11658;48.908;9.140;2024-01-11T11:56:01;-0.90;99.90
22984;DHT22;11658;48.908;9.140;2024-01-11T11:58:31;-0.80;99.90
22984;DHT22;11658;48.908;9.140;2024-01-11T12:00:58;-0.80;99.90
22984;DHT22;11658;48.908;9.140;2024-01-11T12:03:44;-0.70;99.90
22984;DHT22;11658;48.908;9.140;2024-01-11T12:06:17;-0.70;99.90
22984;DHT22;11658;48.908;9.140;2024-01-11T12:08:44;-0.60;99.90
22984;DHT22;11658;48.908;9.140;2024-01-11T12:11:14;-0.50;99.90
22984;DHT22;11658;48.908;9.140;2024-01-11T12:13:40;-0.50;99.90
22984;DHT22;11658;48.908;9.140;2024-01-11T12:16:06;-0.50;99.90
22984;DHT22;11658;48.908;9.140;2024-01-11T12:18:32;-0.50;99.90
22984;DHT22;11658;48.908;9.140;2024-01-11T12:20:57;-0.60;99.90
22984;DHT22;11658;48.908;9.140;2024-01-11T12:23:23;-0.50;99.90
22984;DHT22;11658;48.908;9.140;2024-01-11T12:25:49;-0.60;99.90
22984;DHT22;11658;48.908;9.140;2024-01-11T12:28:15;-0.50;99.90
22984;DHT22;11658;48.908;9.140;2024-01-11T12:30:40;-0.50;99.90
22984;DHT22;11658;48.908;9.140;2024-01-11T12:33:07;-0.40;99.90
22984;DHT22;11658;48.908;9.140;2024-01-11T12:35:33;-0.30;99.90
22984;DHT22;11658;48.908;9.140;2024-01-11T12:38:01;-0.40;99.90
22984;DHT22;11658;48.908;9.140;2024-01-11T12:40:27;-0.60;99.90
22984;DHT22;11658;48.908;9.140;2024-01-11T12:42:53;-0.40;99.90
22984;DHT22;11658;48.908;9.140;2024-01-11T12:45:20;-0.40;99.90
22984;DHT22;11658;48.908;9.140;2024-01-11T12:47:45;-0.30;99.90
22984;DHT22;11658;48.908;9.140;2024-01-11T12:50:12;-0.20;99.90
22984;DHT22;11658;48.908;9.140;2024-01-11T12:52:38;-0.30;99.90
22984;DHT22;11658;48.908;9.140;2024-01-11T12:55:04;-0.20;99.90
22984;DHT22;11658;48.908;9.140;2024-01-11T12:57:30;-0.30;99.90
22984;DHT22;11658;48.908;9.140;2024-01-11T13:00:12;-0.30;99.90
22984;DHT22;11658;48.908;9.140;2024-01-11T13:02:39;-0.30;99.90
22984;DHT22;11658;48.908;9.140;2024-01-11T13:05:05;-0.30;99.90
22984;DHT22;11658;48.908;9.140;2024-01-11T13:07:32;-0.30;99.90
22984;DHT22;11658;48.908;9.140;2024-01-11T13:09:59;-0.30;99.90
22984;DHT22;11658;48.908;9.140;2024-01-11T13:12:24;-0.20;99.90
22984;DHT22;11658;48.908;9.140;2024-01-11T13:14:50;-0.20;99.90
22984;DHT22;11658;48.908;9.140;2024-01-11T13:17:18;-0.10;99.90
22984;DHT22;11658;48.908;9.140;2024-01-11T13:19:43;-0.20;99.90
22984;DHT22;11658;48.908;9.140;2024-01-11T13:22:10;-0.30;99.90
22984;DHT22;11658;48.908;9.140;2024-01-11T13:24:36;-0.30;99.90
22984;DHT22;11658;48.908;9.140;2024-01-11T13:27:01;-0.20;99.90
22984;DHT22;11658;48.908;9.140;2024-01-11T13:29:27;-0.20;99.90
22984;DHT22;11658;48.908;9.140;2024-01-11T13:31:52;-0.20;99.90
22984;DHT22;11658;48.908;9.140;2024-01-11T13:34:18;-0.20;99.90
22984;DHT22;11658;48.908;9.140;2024-01-11T13:36:44;-0.20;99.90
22984;DHT22;11658;48.908;9.140;2024-01-11T13:39:10;-0.30;99.90
22984;DHT22;11658;48.908;9.140;2024-01-11T13:41:36;-0.20;99.90
22984;DHT22;11658;48.908;9.140;2024-01-11T13:44:02;-0.20;99.90
22984;DHT22;11658;48.908;9.140;2024-01-11T13:46:30;-0.10;99.90
22984;DHT22;11658;48.908;9.140;2024-01-11T13:48:56;-0.10;99.90
22984;DHT22;11658;48.908;9.140;2024-01-11T13:51:22;-0.10;99.90
22984;DHT22;11658;48.908;9.140;2024-01-11T13:53:48;0.00;99.90
22984;DHT22;11658;48.908;9.140;2024-01-11T13:56:13;0.00;99.90
22984;DHT22;11658;48.908;9.140;2024-01-11T13:58:39;0.10;99.90
22984;DHT22;11658;48.908;9.140;2024-01-11T14:01:04;0.00;99.90
22984;DHT22;11658;48.908;9.140;2024-01-11T14:03:30;-0.10;99.90
22984;DHT22;11658;48.908;9.140;2024-01-11T14:05:56;-0.10;99.90
22984;DHT22;11658;48.908;9.140;2024-01-11T14:08:22;0.00;99.90
22984;DHT22;11658;48.908;9.140;2024-01-11T14:10:47;-0.10;99.90
22984;DHT22;11658;48.908;9.140;2024-01-11T14:13:13;-0.10;99.90
22984;DHT22;11658;48.908;9.140;2024-01-11T14:15:38;0.00;99.90
22984;DHT22;11658;48.908;9.140;2024-01-11T14:18:06;0.00;99.90
22984;DHT22;11658;48.908;9.140;2024-01-11T14:20:33;0.00;99.90
22984;DHT22;11658;48.908;9.140;2024-01-11T14:22:59;-0.20;99.90
22984;DHT22;11658;48.908;9.140;2024-01-11T14:25:25;-0.20;99.90
22984;DHT22;11658;48.908;9.140;2024-01-11T14:27:51;-0.20;99.90
22984;DHT22;11658;48.908;9.140;2024-01-11T14:30:18;-0.10;99.90
22984;DHT22;11658;48.908;9.140;2024-01-11T14:32:43;-0.10;99.90
22984;DHT22;11658;48.908;9.140;2024-01-11T14:35:10;0.00;99.90
22984;DHT22;11658;48.908;9.140;2024-01-11T14:37:38;0.10;99.90
22984;DHT22;11658;48.908;9.140;2024-01-11T14:40:08;0.10;99.90
22984;DHT22;11658;48.908;9.140;2024-01-11T14:42:37;0.00;99.90
22984;DHT22;11658;48.908;9.140;2024-01-11T14:45:03;-0.10;99.90
22984;DHT22;11658;48.908;9.140;2024-01-11T14:47:29;-0.20;99.90
22984;DHT22;11658;48.908;9.140;2024-01-11T14:49:57;-0.20;99.90
22984;DHT22;11658;48.908;9.140;2024-01-11T14:52:22;-0.20;99.90
22984;DHT22;11658;48.908;9.140;2024-01-11T14:54:48;-0.30;99.90
22984;DHT22;11658;48.908;9.140;2024-01-11T14:57:14;-0.30;99.90
22984;DHT22;11658;48.908;9.140;2024-01-11T14:59:40;-0.30;99.90
22984;DHT22;11658;48.908;9.140;2024-01-11T15:02:05;-0.30;99.90
22984;DHT22;11658;48.908;9.140;2024-01-11T15:04:31;-0.40;99.90
22984;DHT22;11658;48.908;9.140;2024-01-11T15:06:57;-0.50;99.90
22984;DHT22;11658;48.908;9.140;2024-01-11T15:09:22;-0.50;99.90
22984;DHT22;11658;48.908;9.140;2024-01-11T15:11:48;-0.50;99.90
22984;DHT22;11658;48.908;9.140;2024-01-11T15:14:14;-0.60;99.90
22984;DHT22;11658;48.908;9.140;2024-01-11T15:16:39;-0.60;99.90
22984;DHT22;11658;48.908;9.140;2024-01-11T15:19:05;-0.60;99.90
22984;DHT22;11658;48.908;9.140;2024-01-11T15:21:31;-0.60;99.90
22984;DHT22;11658;48.908;9.140;2024-01-11T15:23:57;-0.70;99.90
22984;DHT22;11658;48.908;9.140;2024-01-11T15:26:25;-0.70;99.90
22984;DHT22;11658;48.908;9.140;2024-01-11T15:28:52;-0.80;99.90
22984;DHT22;11658;48.908;9.140;2024-01-11T15:31:18;-0.90;99.90
22984;DHT22;11658;48.908;9.140;2024-01-11T15:33:43;-0.90;99.90
22984;DHT22;11658;48.908;9.140;2024-01-11T15:36:09;-0.90;99.90
22984;DHT22;11658;48.908;9.140;2024-01-11T15:38:35;-1.00;99.90
22984;DHT22;11658;48.908;9.140;2024-01-11T15:41:00;-1.00;99.90
22984;DHT22;11658;48.908;9.140;2024-01-11T15:43:26;-1.10;99.90
22984;DHT22;11658;48.908;9.140;2024-01-11T15:45:52;-1.20;99.90
22984;DHT22;11658;48.908;9.140;2024-01-11T15:48:17;-1.30;99.90
22984;DHT22;11658;48.908;9.140;2024-01-11T15:50:43;-1.30;99.90
22984;DHT22;11658;48.908;9.140;2024-01-11T15:53:08;-1.40;99.90
22984;DHT22;11658;48.908;9.140;2024-01-11T15:55:34;-1.50;99.90
22984;DHT22;11658;48.908;9.140;2024-01-11T15:58:00;-1.50;99.90
22984;DHT22;11658;48.908;9.140;2024-01-11T16:00:27;-1.60;99.90
22984;DHT22;11658;48.908;9.140;2024-01-11T16:02:52;-1.60;99.90
22984;DHT22;11658;48.908;9.140;2024-01-11T16:05:21;-1.70;99.90
22984;DHT22;11658;48.908;9.140;2024-01-11T16:07:47;-1.70;99.90
22984;DHT22;11658;48.908;9.140;2024-01-11T16:10:13;-1.70;99.90
22984;DHT22;11658;48.908;9.140;2024-01-11T16:12:40;-1.70;99.90
22984;DHT22;11658;48.908;9.140;2024-01-11T16:15:06;-1.70;99.90
22984;DHT22;11658;48.908;9.140;2024-01-11T16:17:31;-1.70;99.90
22984;DHT22;11658;48.908;9.140;2024-01-11T16:19:57;-1.80;99.90
22984;DHT22;11658;48.908;9.140;2024-01-11T16:22:23;-1.80;99.90
22984;DHT22;11658;48.908;9.140;2024-01-11T16:24:50;-1.80;99.90
22984;DHT22;11658;48.908;9.140;2024-01-11T16:27:15;-1.90;99.90
22984;DHT22;11658;48.908;9.140;2024-01-11T16:29:42;-1.90;99.90
22984;DHT22;11658;48.908;9.140;2024-01-11T16:32:08;-1.90;99.90
22984;DHT22;11658;48.908;9.140;2024-01-11T16:34:35;-1.90;99.90
22984;DHT22;11658;48.908;9.140;2024-01-11T16:37:01;-2.00;99.90
22984;DHT22;11658;48.908;9.140;2024-01-11T16:39:26;-2.00;99.90
22984;DHT22;11658;48.908;9.140;2024-01-11T16:41:52;-2.10;99.90
22984;DHT22;11658;48.908;9.140;2024-01-11T16:44:18;-2.10;99.90
22984;DHT22;11658;48.908;9.140;2024-01-11T16:46:44;-2.10;99.90
22984;DHT22;11658;48.908;9.140;2024-01-11T16:49:10;-2.10;99.90
22984;DHT22;11658;48.908;9.140;2024-01-11T16:51:46;-2.20;99.90
22984;DHT22;11658;48.908;9.140;2024-01-11T16:54:14;-2.20;99.90
22984;DHT22;11658;48.908;9.140;2024-01-11T16:56:40;-2.20;99.90
22984;DHT22;11658;48.908;9.140;2024-01-11T16:59:06;-2.20;99.90
22984;DHT22;11658;48.908;9.140;2024-01-11T17:01:32;-2.20;99.90
22984;DHT22;11658;48.908;9.140;2024-01-11T17:03:58;-2.10;99.90
22984;DHT22;11658;48.908;9.140;2024-01-11T17:06:25;-2.10;99.90
22984;DHT22;11658;48.908;9.140;2024-01-11T17:08:52;-2.10;99.90
22984;DHT22;11658;48.908;9.140;2024-01-11T17:11:18;-2.10;99.90
22984;DHT22;11658;48.908;9.140;2024-01-11T17:13:44;-2.10;99.90
22984;DHT22;11658;48.908;9.140;2024-01-11T17:16:16;-2.10;99.90
22984;DHT22;11658;48.908;9.140;2024-01-11T17:18:42;-2.10;99.90
22984;DHT22;11658;48.908;9.140;2024-01-11T17:21:08;-2.20;99.90
22984;DHT22;11658;48.908;9.140;2024-01-11T17:23:33;-2.20;99.90
22984;DHT22;11658;48.908;9.140;2024-01-11T17:25:59;-2.30;99.90
22984;DHT22;11658;48.908;9.140;2024-01-11T17:28:25;-2.30;99.90
22984;DHT22;11658;48.908;9.140;2024-01-11T17:30:51;-2.40;99.90
22984;DHT22;11658;48.908;9.140;2024-01-11T17:33:16;-2.40;99.90
22984;DHT22;11658;48.908;9.140;2024-01-11T17:35:42;-2.50;99.90
22984;DHT22;11658;48.908;9.140;2024-01-11T17:38:08;-2.60;99.90
22984;DHT22;11658;48.908;9.140;2024-01-11T17:40:34;-2.60;99.90
22984;DHT22;11658;48.908;9.140;2024-01-11T17:43:00;-2.70;99.90
22984;DHT22;11658;48.908;9.140;2024-01-11T17:45:27;-2.70;99.90
22984;DHT22;11658;48.908;9.140;2024-01-11T17:47:53;-2.60;99.90
22984;DHT22;11658;48.908;9.140;2024-01-11T17:50:20;-2.60;99.90
22984;DHT22;11658;48.908;9.140;2024-01-11T17:52:45;-2.60;99.90
22984;DHT22;11658;48.908;9.140;2024-01-11T17:55:11;-2.50;99.90
22984;DHT22;11658;48.908;9.140;2024-01-11T17:57:37;-2.50;99.90
22984;DHT22;11658;48.908;9.140;2024-01-11T18:00:04;-2.50;99.90
22984;DHT22;11658;48.908;9.140;2024-01-11T18:02:32;-2.50;99.90
22984;DHT22;11658;48.908;9.140;2024-01-11T18:04:57;-2.50;99.90
22984;DHT22;11658;48.908;9.140;2024-01-11T18:07:23;-2.50;99.90
22984;DHT22;11658;48.908;9.140;2024-01-11T18:09:51;-2.60;99.90
22984;DHT22;11658;48.908;9.140;2024-01-11T18:12:18;-2.60;99.90
22984;DHT22;11658;48.908;9.140;2024-01-11T18:14:44;-2.50;99.90
22984;DHT22;11658;48.908;9.140;2024-01-11T18:17:10;-2.50;99.90
22984;DHT22;11658;48.908;9.140;2024-01-11T18:19:36;-2.50;99.90
22984;DHT22;11658;48.908;9.140;2024-01-11T18:22:02;-2.40;99.90
22984;DHT22;11658;48.908;9.140;2024-01-11T18:24:27;-2.50;99.90
22984;DHT22;11658;48.908;9.140;2024-01-11T18:26:53;-2.60;99.90
22984;DHT22;11658;48.908;9.140;2024-01-11T18:29:19;-2.70;99.90
22984;DHT22;11658;48.908;9.140;2024-01-11T18:31:47;-2.70;99.90
22984;DHT22;11658;48.908;9.140;2024-01-11T18:34:13;-2.70;99.90
22984;DHT22;11658;48.908;9.140;2024-01-11T18:36:47;-2.70;99.90
22984;DHT22;11658;48.908;9.140;2024-01-11T18:39:13;-2.70;99.90
22984;DHT22;11658;48.908;9.140;2024-01-11T18:41:39;-2.80;99.90
22984;DHT22;11658;48.908;9.140;2024-01-11T18:44:05;-2.80;99.90
22984;DHT22;11658;48.908;9.140;2024-01-11T18:46:31;-2.90;99.90
22984;DHT22;11658;48.908;9.140;2024-01-11T18:48:56;-2.90;99.90
22984;DHT22;11658;48.908;9.140;2024-01-11T18:51:22;-3.00;99.90
22984;DHT22;11658;48.908;9.140;2024-01-11T18:53:47;-3.00;99.90
22984;DHT22;11658;48.908;9.140;2024-01-11T18:56:14;-3.10;99.90
22984;DHT22;11658;48.908;9.140;2024-01-11T18:58:40;-3.10;99.90
22984;DHT22;11658;48.908;9.140;2024-01-11T19:01:06;-3.10;99.90
22984;DHT22;11658;48.908;9.140;2024-01-11T19:03:33;-3.10;99.90
22984;DHT22;11658;48.908;9.140;2024-01-11T19:05:59;-3.00;99.90
22984;DHT22;11658;48.908;9.140;2024-01-11T19:08:24;-2.90;99.90
22984;DHT22;11658;48.908;9.140;2024-01-11T19:10:53;-2.80;99.90
22984;DHT22;11658;48.908;9.140;2024-01-11T19:13:19;-2.90;99.90
22984;DHT22;11658;48.908;9.140;2024-01-11T19:15:45;-3.00;99.90
22984;DHT22;11658;48.908;9.140;2024-01-11T19:18:14;-3.10;99.90
22984;DHT22;11658;48.908;9.140;2024-01-11T19:20:40;-3.20;99.90
22984;DHT22;11658;48.908;9.140;2024-01-11T19:23:06;-3.30;99.90
22984;DHT22;11658;48.908;9.140;2024-01-11T19:25:31;-3.30;99.90
22984;DHT22;11658;48.908;9.140;2024-01-11T19:27:59;-3.30;99.90
22984;DHT22;11658;48.908;9.140;2024-01-11T19:30:27;-3.20;99.90
22984;DHT22;11658;48.908;9.140;2024-01-11T19:32:52;-3.20;99.90
22984;DHT22;11658;48.908;9.140;2024-01-11T19:35:18;-3.30;99.90
22984;DHT22;11658;48.908;9.140;2024-01-11T19:37:43;-3.30;99.90
22984;DHT22;11658;48.908;9.140;2024-01-11T19:40:10;-3.40;99.90
22984;DHT22;11658;48.908;9.140;2024-01-11T19:42:35;-3.40;99.90
22984;DHT22;11658;48.908;9.140;2024-01-11T19:45:01;-3.30;99.90
22984;DHT22;11658;48.908;9.140;2024-01-11T19:47:27;-3.40;99.90
22984;DHT22;11658;48.908;9.140;2024-01-11T19:49:53;-3.40;99.90
22984;DHT22;11658;48.908;9.140;2024-01-11T19:52:18;-3.30;99.90
22984;DHT22;11658;48.908;9.140;2024-01-11T19:54:44;-3.30;99.90
22984;DHT22;11658;48.908;9.140;2024-01-11T19:57:10;-3.30;99.90
22984;DHT22;11658;48.908;9.140;2024-01-11T19:59:35;-3.30;99.90
22984;DHT22;11658;48.908;9.140;2024-01-11T20:02:01;-3.50;99.90
22984;DHT22;11658;48.908;9.140;2024-01-11T20:04:26;-3.50;99.90
22984;DHT22;11658;48.908;9.140;2024-01-11T20:06:52;-3.40;99.90
22984;DHT22;11658;48.908;9.140;2024-01-11T20:09:19;-3.40;99.90
22984;DHT22;11658;48.908;9.140;2024-01-11T20:11:45;-3.40;99.90
22984;DHT22;11658;48.908;9.140;2024-01-11T20:14:11;-3.40;99.90
22984;DHT22;11658;48.908;9.140;2024-01-11T20:16:37;-3.30;99.90
22984;DHT22;11658;48.908;9.140;2024-01-11T20:19:04;-3.30;99.90
22984;DHT22;11658;48.908;9.140;2024-01-11T20:21:29;-3.30;99.90
22984;DHT22;11658;48.908;9.140;2024-01-11T20:23:56;-3.30;99.90
22984;DHT22;11658;48.908;9.140;2024-01-11T20:26:22;-3.40;99.90
22984;DHT22;11658;48.908;9.140;2024-01-11T20:28:49;-3.30;99.90
22984;DHT22;11658;48.908;9.140;2024-01-11T20:31:14;-3.30;99.90
22984;DHT22;11658;48.908;9.140;2024-01-11T20:33:41;-3.30;99.90